createdAt,value
2023-08-03T00:00:55.778Z,1.83
2023-08-03T00:03:22.461Z,2.00
2023-08-03T00:05:50.146Z,2.13
2023-08-03T00:08:19.009Z,1.75
2023-08-03T00:10:45.725Z,2.03
2023-08-03T00:13:12.245Z,2.15
2023-08-03T00:15:38.727Z,2.20
2023-08-03T00:18:05.255Z,2.17
2023-08-03T00:20:31.848Z,2.05
2023-08-03T00:22:58.653Z,2.10
2023-08-03T00:25:26.276Z,2.00
2023-08-03T00:27:56.906Z,1.80
2023-08-03T00:30:23.770Z,2.10
2023-08-03T00:32:50.799Z,2.03
2023-08-03T00:35:17.566Z,1.98
2023-08-03T00:37:44.225Z,2.10
2023-08-03T00:40:13.352Z,2.28
2023-08-03T00:42:40.213Z,1.85
2023-08-03T00:45:12.532Z,2.05
2023-08-03T00:47:40.674Z,2.05
2023-08-03T00:50:08.192Z,2.20
2023-08-03T00:52:35.476Z,2.08
2023-08-03T00:55:05.578Z,2.33
2023-08-03T00:57:32.389Z,2.22
2023-08-03T00:59:59.846Z,2.45
2023-08-03T01:02:26.762Z,2.10
2023-08-03T01:04:53.488Z,2.28
2023-08-03T01:07:22.887Z,2.45
2023-08-03T01:09:49.833Z,2.55
2023-08-03T01:12:18.083Z,2.65
2023-08-03T01:14:46.291Z,2.38
2023-08-03T01:17:15.563Z,2.63
2023-08-03T01:19:42.480Z,2.05
2023-08-03T01:22:11.297Z,2.38
2023-08-03T01:24:37.815Z,2.33
2023-08-03T01:27:04.624Z,2.60
2023-08-03T01:29:34.445Z,2.47
2023-08-03T01:32:02.699Z,2.70
2023-08-03T01:34:29.262Z,2.30
2023-08-03T01:36:57.009Z,2.75
2023-08-03T01:39:28.400Z,2.80
2023-08-03T01:41:57.062Z,2.47
2023-08-03T01:44:30.477Z,2.60
2023-08-03T01:46:59.273Z,2.72
2023-08-03T01:49:28.691Z,2.75
2023-08-03T01:51:55.141Z,2.88
2023-08-03T01:54:22.098Z,2.80
2023-08-03T01:56:50.029Z,2.95
2023-08-03T01:59:16.605Z,2.85
2023-08-03T02:01:46.622Z,2.45
2023-08-03T02:04:15.616Z,2.78
2023-08-03T02:06:42.259Z,2.90
2023-08-03T02:09:08.825Z,2.58
2023-08-03T02:11:37.236Z,2.63
2023-08-03T02:14:05.082Z,2.67
2023-08-03T02:16:32.992Z,2.90
2023-08-03T02:18:59.599Z,2.20
2023-08-03T02:21:26.112Z,2.63
2023-08-03T02:23:52.883Z,2.78
2023-08-03T02:26:20.737Z,2.80
2023-08-03T02:28:48.220Z,2.80
2023-08-03T02:31:17.290Z,3.10
2023-08-03T02:33:44.017Z,3.00
2023-08-03T02:36:10.640Z,3.30
2023-08-03T02:38:38.408Z,2.97
2023-08-03T02:41:04.936Z,3.25
2023-08-03T02:43:31.675Z,3.00
2023-08-03T02:45:58.198Z,3.00
2023-08-03T02:48:24.782Z,3.25
2023-08-03T02:50:51.293Z,3.00
2023-08-03T02:53:18.004Z,3.03
2023-08-03T02:55:47.197Z,3.17
2023-08-03T02:58:13.651Z,3.50
2023-08-03T03:00:40.877Z,3.03
2023-08-03T03:03:07.757Z,3.10
2023-08-03T03:05:34.400Z,3.00
2023-08-03T03:08:00.863Z,3.20
2023-08-03T03:10:27.361Z,2.85
2023-08-03T03:12:53.852Z,3.03
2023-08-03T03:15:20.559Z,3.50
2023-08-03T03:17:47.295Z,3.35
2023-08-03T03:20:14.021Z,3.42
2023-08-03T03:22:40.556Z,3.35
2023-08-03T03:25:07.617Z,3.50
2023-08-03T03:27:34.333Z,3.63
2023-08-03T03:30:00.830Z,3.60
2023-08-03T03:32:28.851Z,3.60
2023-08-03T03:34:55.386Z,3.20
2023-08-03T03:37:21.988Z,3.50
2023-08-03T03:39:48.902Z,4.07
2023-08-03T03:42:15.338Z,4.03
2023-08-03T03:44:41.765Z,3.65
2023-08-03T03:47:08.262Z,3.40
2023-08-03T03:49:34.784Z,3.45
2023-08-03T03:52:02.491Z,3.47
2023-08-03T03:54:28.955Z,3.58
2023-08-03T03:56:57.029Z,3.78
2023-08-03T03:59:23.506Z,3.55
2023-08-03T04:01:50.520Z,4.18
2023-08-03T04:04:16.925Z,3.22
2023-08-03T04:06:45.028Z,3.20
2023-08-03T04:09:11.595Z,3.40
2023-08-03T04:11:38.432Z,3.42
2023-08-03T04:14:06.442Z,3.33
2023-08-03T04:16:32.866Z,3.50
2023-08-03T04:19:00.908Z,3.40
2023-08-03T04:21:27.368Z,3.83
2023-08-03T04:23:53.890Z,3.88
2023-08-03T04:26:20.388Z,3.97
2023-08-03T04:28:46.808Z,4.07
2023-08-03T04:31:13.826Z,3.92
2023-08-03T04:33:43.198Z,4.10
2023-08-03T04:36:09.690Z,3.78
2023-08-03T04:38:36.682Z,3.65
2023-08-03T04:41:04.339Z,3.60
2023-08-03T04:43:33.505Z,3.85
2023-08-03T04:46:00.272Z,3.95
2023-08-03T04:48:27.095Z,4.33
2023-08-03T04:50:55.151Z,3.70
2023-08-03T04:53:21.842Z,3.30
2023-08-03T04:55:48.545Z,3.30
2023-08-03T04:58:15.142Z,3.80
2023-08-03T05:00:41.755Z,3.60
2023-08-03T05:03:08.347Z,3.70
2023-08-03T05:05:35.245Z,3.90
2023-08-03T05:08:01.766Z,3.95
2023-08-03T05:10:28.673Z,4.20
2023-08-03T05:12:55.415Z,4.10
2023-08-03T05:15:23.647Z,4.68
2023-08-03T05:17:50.976Z,4.07
2023-08-03T05:20:17.993Z,4.07
2023-08-03T05:22:44.863Z,3.50
2023-08-03T05:25:11.917Z,3.83
2023-08-03T05:27:39.907Z,3.30
2023-08-03T05:30:07.962Z,3.53
2023-08-03T05:32:34.914Z,3.53
2023-08-03T05:35:01.672Z,3.00
2023-08-03T05:37:28.132Z,3.03
2023-08-03T05:39:55.297Z,2.75
2023-08-03T05:42:22.137Z,2.55
2023-08-03T05:44:49.736Z,2.45
2023-08-03T05:47:18.877Z,2.80
2023-08-03T05:49:46.532Z,2.70
2023-08-03T05:52:13.386Z,2.75
2023-08-03T05:54:40.487Z,2.70
2023-08-03T05:57:12.565Z,2.58
2023-08-03T05:59:40.609Z,2.50
2023-08-03T06:02:20.811Z,2.60
2023-08-03T06:04:48.509Z,2.90
2023-08-03T06:07:15.357Z,2.80
2023-08-03T06:09:42.088Z,2.60
2023-08-03T06:12:15.972Z,2.30
2023-08-03T06:14:42.678Z,2.50
2023-08-03T06:17:12.442Z,2.60
2023-08-03T06:19:38.943Z,2.47
2023-08-03T06:22:17.680Z,2.88
2023-08-03T06:24:44.194Z,2.47
2023-08-03T06:27:12.773Z,2.72
2023-08-03T06:29:39.961Z,2.67
2023-08-03T06:32:15.968Z,2.60
2023-08-03T06:34:42.552Z,2.60
2023-08-03T06:37:10.625Z,2.60
2023-08-03T06:39:37.330Z,2.35
2023-08-03T06:42:05.604Z,2.35
2023-08-03T06:44:34.801Z,2.92
2023-08-03T06:47:02.615Z,2.20
2023-08-03T06:49:29.240Z,2.08
2023-08-03T06:51:56.121Z,2.30
2023-08-03T06:54:22.690Z,2.50
2023-08-03T06:56:49.488Z,2.72
2023-08-03T06:59:22.116Z,2.38
2023-08-03T07:01:52.758Z,2.38
2023-08-03T07:04:19.692Z,2.28
2023-08-03T07:06:47.828Z,2.70
2023-08-03T07:09:14.709Z,1.83
2023-08-03T07:11:41.238Z,2.50
2023-08-03T07:14:10.053Z,2.22
2023-08-03T07:16:38.301Z,2.50
2023-08-03T07:19:22.535Z,1.50
2023-08-03T07:21:49.179Z,1.73
2023-08-03T07:24:15.658Z,1.85
2023-08-03T07:26:42.962Z,1.70
2023-08-03T07:29:09.753Z,1.73
2023-08-03T07:31:36.482Z,1.60
2023-08-03T07:34:05.944Z,1.52
2023-08-03T07:36:32.443Z,1.65
2023-08-03T07:38:58.971Z,1.40
2023-08-03T07:41:25.530Z,1.63
2023-08-03T07:43:51.914Z,1.60
2023-08-03T07:46:18.422Z,1.50
2023-08-03T07:48:44.908Z,1.65
2023-08-03T07:51:13.374Z,1.80
2023-08-03T07:53:39.972Z,1.50
2023-08-03T07:56:17.486Z,1.50
2023-08-03T07:58:45.081Z,1.35
2023-08-03T08:01:11.849Z,1.30
2023-08-03T08:03:39.998Z,1.50
2023-08-03T08:06:12.568Z,1.63
2023-08-03T08:08:40.034Z,1.20
2023-08-03T08:11:13.014Z,1.20
2023-08-03T08:13:40.210Z,1.13
2023-08-03T08:16:09.149Z,1.17
2023-08-03T08:18:36.528Z,1.48
2023-08-03T08:21:08.583Z,1.52
2023-08-03T08:23:36.716Z,1.17
2023-08-03T08:26:10.502Z,1.20
2023-08-03T08:28:40.945Z,1.10
2023-08-03T08:31:08.373Z,1.30
2023-08-03T08:33:35.470Z,1.17
2023-08-03T08:36:02.173Z,1.30
2023-08-03T08:38:28.816Z,1.08
2023-08-03T08:40:55.357Z,1.17
2023-08-03T08:43:23.143Z,1.52
2023-08-03T08:45:50.742Z,1.00
2023-08-03T08:53:18.083Z,1.38
2023-08-03T09:00:46.682Z,1.20
2023-08-03T09:03:14.943Z,1.00
2023-08-03T09:08:14.431Z,1.02
2023-08-03T09:10:51.124Z,1.00
2023-08-03T09:13:37.946Z,0.90
2023-08-03T09:16:05.287Z,1.00
2023-08-03T09:18:33.102Z,0.77
2023-08-03T09:26:12.166Z,0.70
2023-08-03T09:28:40.726Z,0.95
2023-08-03T09:31:08.865Z,0.70
2023-08-03T09:33:35.754Z,0.70
2023-08-03T09:38:46.051Z,0.70
2023-08-03T09:41:14.097Z,0.50
2023-08-03T09:43:42.208Z,0.60
2023-08-03T09:46:10.127Z,0.70
2023-08-03T09:48:38.081Z,0.55
2023-08-03T09:51:05.889Z,0.68
2023-08-03T09:53:38.918Z,0.75
2023-08-03T09:56:09.910Z,0.60
2023-08-03T09:58:53.068Z,0.77
2023-08-03T10:01:25.931Z,0.70
2023-08-03T10:04:03.426Z,0.73
2023-08-03T10:06:40.009Z,0.63
2023-08-03T10:09:08.151Z,0.70
2023-08-03T10:11:40.022Z,0.70
2023-08-03T10:14:10.174Z,0.70
2023-08-03T10:16:43.657Z,0.68
2023-08-03T10:19:11.215Z,0.77
2023-08-03T10:21:40.426Z,0.50
2023-08-03T10:24:19.882Z,0.90
2023-08-03T10:26:59.305Z,0.65
2023-08-03T10:29:50.687Z,0.88
2023-08-03T10:32:22.528Z,0.70
2023-08-03T10:34:49.932Z,0.70
2023-08-03T10:37:16.737Z,0.60
2023-08-03T10:39:55.401Z,0.65
2023-08-03T10:42:31.249Z,0.75
2023-08-03T10:45:22.628Z,0.60
2023-08-03T10:47:50.668Z,0.60
2023-08-03T10:50:19.671Z,0.75
2023-08-03T10:52:46.165Z,0.60
2023-08-03T10:55:28.315Z,0.63
2023-08-03T10:57:58.415Z,0.60
2023-08-03T11:00:25.143Z,0.70
2023-08-03T11:02:51.967Z,0.50
2023-08-03T11:05:18.649Z,0.70
2023-08-03T11:07:47.019Z,0.68
2023-08-03T11:10:15.737Z,0.47
2023-08-03T11:12:44.142Z,0.50
2023-08-03T11:15:15.468Z,0.90
2023-08-03T11:17:42.135Z,0.57
2023-08-03T11:20:09.355Z,0.50
2023-08-03T11:22:36.238Z,0.60
2023-08-03T11:25:06.789Z,0.50
2023-08-03T11:27:34.045Z,0.50
2023-08-03T11:30:04.047Z,0.75
2023-08-03T11:32:32.914Z,0.50
2023-08-03T11:35:01.569Z,0.75
2023-08-03T11:37:29.788Z,0.75
2023-08-03T11:39:56.252Z,0.50
2023-08-03T11:42:23.747Z,0.50
2023-08-03T11:44:56.485Z,0.57
2023-08-03T11:47:23.868Z,0.60
2023-08-03T11:49:52.943Z,0.50
2023-08-03T11:52:20.571Z,0.60
2023-08-03T11:54:47.642Z,0.77
2023-08-03T11:57:32.705Z,0.60
2023-08-03T11:59:59.243Z,0.63
2023-08-03T12:02:40.853Z,0.50
2023-08-03T12:05:16.628Z,0.50
2023-08-03T12:10:26.831Z,0.60
2023-08-03T12:13:00.696Z,0.60
2023-08-03T12:17:54.826Z,0.50
2023-08-03T12:20:22.047Z,0.47
2023-08-03T12:22:48.489Z,0.60
2023-08-03T12:25:15.221Z,0.70
2023-08-03T12:27:41.685Z,0.57
2023-08-03T12:30:09.320Z,0.50
2023-08-03T12:32:36.169Z,0.60
2023-08-03T12:35:02.834Z,0.50
2023-08-03T12:37:29.288Z,0.70
2023-08-03T12:39:55.889Z,0.60
2023-08-03T12:42:23.280Z,0.47
2023-08-03T12:44:51.348Z,0.70
2023-08-03T12:47:17.941Z,0.63
2023-08-03T12:49:44.686Z,0.50
2023-08-03T12:52:11.205Z,0.55
2023-08-03T12:54:37.681Z,0.43
2023-08-03T12:57:04.326Z,0.60
2023-08-03T12:59:30.809Z,0.60
2023-08-03T13:01:57.978Z,0.60
2023-08-03T13:04:24.496Z,0.50
2023-08-03T13:06:51.026Z,0.60
2023-08-03T13:09:17.500Z,0.50
2023-08-03T13:11:43.988Z,0.52
2023-08-03T13:14:13.719Z,0.40
2023-08-03T13:16:41.232Z,0.52
2023-08-03T13:19:07.986Z,0.60
2023-08-03T13:21:34.855Z,0.43
2023-08-03T13:24:01.321Z,0.40
2023-08-03T13:26:30.302Z,0.70
2023-08-03T13:28:57.019Z,0.50
2023-08-03T13:31:23.682Z,0.38
2023-08-03T13:33:50.715Z,0.57
2023-08-03T13:36:17.171Z,0.30
2023-08-03T13:38:43.746Z,0.50
2023-08-03T13:41:10.271Z,0.50
2023-08-03T13:43:40.383Z,0.40
2023-08-03T13:46:06.918Z,0.60
2023-08-03T13:48:33.390Z,0.50
2023-08-03T13:51:00.414Z,0.50
2023-08-03T13:53:27.366Z,0.47
2023-08-03T13:55:53.902Z,0.40
2023-08-03T14:00:50.289Z,0.50
2023-08-03T14:03:33.460Z,0.50
2023-08-03T14:08:30.451Z,0.60
2023-08-03T14:13:57.228Z,0.60
2023-08-03T14:21:30.334Z,0.52
2023-08-03T14:24:02.888Z,0.50
2023-08-03T14:26:31.055Z,0.50
2023-08-03T14:31:27.139Z,0.50
2023-08-03T14:33:54.050Z,0.60
2023-08-03T14:36:20.609Z,0.50
2023-08-03T14:38:47.144Z,0.60
2023-08-03T14:41:16.178Z,0.55
2023-08-03T14:43:44.734Z,0.70
2023-08-03T14:46:15.602Z,0.60
2023-08-03T14:48:42.336Z,0.90
2023-08-03T14:53:39.174Z,0.60
2023-08-03T15:01:10.492Z,0.70
2023-08-03T15:03:39.957Z,0.55
2023-08-03T15:06:24.257Z,0.52
2023-08-03T15:08:52.789Z,0.57
2023-08-03T15:11:19.586Z,0.50
2023-08-03T15:13:46.335Z,0.60
2023-08-03T15:18:54.747Z,0.90
2023-08-03T15:21:34.227Z,0.50
2023-08-03T15:24:01.764Z,0.82
2023-08-03T15:26:32.350Z,0.50
2023-08-03T15:29:03.554Z,0.65
2023-08-03T15:31:31.384Z,0.50
2023-08-03T15:34:02.550Z,0.52
2023-08-03T15:36:44.114Z,0.50
2023-08-03T15:39:14.720Z,0.57
2023-08-03T15:41:45.622Z,0.60
2023-08-03T15:44:14.203Z,0.60
2023-08-03T15:47:02.806Z,0.70
2023-08-03T15:49:32.862Z,0.50
2023-08-03T15:52:04.074Z,0.50
2023-08-03T15:54:39.466Z,0.60
2023-08-03T15:57:09.126Z,0.50
2023-08-03T15:59:36.901Z,0.40
2023-08-03T16:02:05.869Z,0.50
2023-08-03T16:04:33.151Z,0.57
2023-08-03T16:06:59.947Z,0.60
2023-08-03T16:09:27.573Z,0.55
2023-08-03T16:11:55.373Z,0.50
2023-08-03T16:14:22.526Z,0.50
2023-08-03T16:16:50.124Z,0.73
2023-08-03T16:19:19.548Z,0.70
2023-08-03T16:21:46.097Z,0.50
2023-08-03T16:24:12.695Z,0.50
2023-08-03T16:26:39.232Z,0.65
2023-08-03T16:29:06.298Z,0.60
2023-08-03T16:36:34.759Z,0.68
2023-08-03T16:39:01.273Z,0.60
2023-08-03T16:41:27.745Z,0.63
2023-08-03T16:43:54.581Z,0.70
2023-08-03T16:46:21.222Z,0.60
2023-08-03T16:48:48.019Z,0.63
2023-08-03T16:51:14.788Z,0.60
2023-08-03T16:53:42.994Z,0.57
2023-08-03T16:56:09.855Z,0.70
2023-08-03T16:58:36.382Z,0.77
2023-08-03T17:01:03.120Z,0.60
2023-08-03T17:03:29.887Z,0.60
2023-08-03T17:05:56.453Z,0.70
2023-08-03T17:08:24.663Z,0.70
2023-08-03T17:10:51.261Z,1.10
2023-08-03T17:13:17.898Z,0.70
2023-08-03T17:15:46.459Z,0.77
2023-08-03T17:18:13.573Z,0.80
2023-08-03T17:20:40.069Z,0.55
2023-08-03T17:23:08.535Z,0.60
2023-08-03T17:25:35.455Z,0.60
2023-08-03T17:28:02.136Z,0.70
2023-08-03T17:30:28.882Z,0.70
2023-08-03T17:32:56.193Z,0.50
2023-08-03T17:35:22.681Z,0.80
2023-08-03T17:37:49.139Z,0.70
2023-08-03T17:40:15.751Z,0.70
2023-08-03T17:42:42.207Z,0.70
2023-08-03T17:45:10.169Z,0.80
2023-08-03T17:47:36.676Z,0.60
2023-08-03T17:50:07.409Z,0.73
2023-08-03T17:52:35.967Z,0.50
2023-08-03T17:55:02.481Z,0.80
2023-08-03T17:57:29.561Z,0.77
2023-08-03T17:59:57.586Z,0.70
2023-08-03T18:02:24.092Z,0.70
2023-08-03T18:04:52.132Z,0.90
2023-08-03T18:07:19.169Z,0.80
2023-08-03T18:09:45.698Z,0.75
2023-08-03T18:12:12.229Z,0.73
2023-08-03T18:14:38.675Z,0.80
2023-08-03T18:17:05.229Z,0.80
2023-08-03T18:19:32.601Z,0.80
2023-08-03T18:22:00.698Z,0.90
2023-08-03T18:24:27.269Z,0.90
2023-08-03T18:26:53.775Z,0.80
2023-08-03T18:29:20.240Z,0.70
2023-08-03T18:31:46.766Z,0.80
2023-08-03T18:34:13.268Z,0.80
2023-08-03T18:36:39.982Z,0.70
2023-08-03T18:39:07.012Z,0.60
2023-08-03T18:41:33.470Z,0.70
2023-08-03T18:43:59.945Z,0.55
2023-08-03T18:46:26.728Z,0.63
2023-08-03T18:48:53.625Z,0.80
2023-08-03T18:51:21.817Z,0.80
2023-08-03T18:53:50.102Z,0.80
2023-08-03T18:56:22.098Z,0.70
2023-08-03T18:58:51.007Z,0.70
2023-08-03T19:01:18.421Z,0.75
2023-08-03T19:03:46.488Z,0.70
2023-08-03T19:06:14.418Z,0.80
2023-08-03T19:08:42.864Z,1.00
2023-08-03T19:11:10.029Z,1.00
2023-08-03T19:13:37.555Z,0.90
2023-08-03T19:16:04.654Z,0.90
2023-08-03T19:18:31.241Z,1.20
2023-08-03T19:20:59.431Z,1.08
2023-08-03T19:23:26.603Z,0.70
2023-08-03T19:25:59.066Z,0.93
2023-08-03T19:28:26.868Z,0.77
2023-08-03T19:30:58.489Z,0.88
2023-08-03T19:33:25.678Z,0.70
2023-08-03T19:35:52.748Z,0.80
2023-08-03T19:38:21.672Z,1.00
2023-08-03T19:40:49.012Z,0.77
2023-08-03T19:43:17.784Z,0.98
2023-08-03T19:45:44.468Z,0.85
2023-08-03T19:48:11.091Z,1.10
2023-08-03T20:10:36.162Z,1.10
2023-08-03T20:20:32.257Z,1.55
2023-08-03T20:22:59.834Z,1.40
2023-08-03T20:25:26.445Z,1.10
2023-08-03T20:27:55.748Z,1.38
2023-08-03T20:30:22.286Z,1.80
2023-08-03T20:32:48.822Z,1.60
2023-08-03T20:35:15.360Z,1.98
2023-08-03T20:37:42.803Z,1.70
2023-08-03T20:40:09.693Z,1.83
2023-08-03T20:47:54.869Z,1.42
2023-08-03T20:52:50.963Z,1.10
2023-08-03T20:55:17.931Z,1.20
2023-08-03T20:57:44.444Z,1.35
2023-08-03T21:00:11.777Z,1.40
2023-08-03T21:02:38.397Z,1.30
2023-08-03T21:05:05.249Z,1.15
2023-08-03T21:07:31.844Z,1.20
2023-08-03T21:12:27.935Z,1.10
2023-08-03T21:14:54.702Z,1.10
2023-08-03T21:17:21.448Z,1.20
2023-08-03T21:19:49.727Z,1.08
2023-08-03T21:22:17.049Z,1.00
2023-08-03T21:24:45.122Z,1.10
2023-08-03T21:27:11.832Z,1.30
2023-08-03T21:29:38.428Z,1.33
2023-08-03T21:32:05.228Z,1.58
2023-08-03T21:34:31.722Z,1.50
2023-08-03T21:36:58.157Z,1.38
2023-08-03T21:39:24.622Z,1.20
2023-08-03T21:41:51.073Z,1.20
2023-08-03T21:44:17.554Z,0.95
2023-08-03T21:46:44.415Z,0.88
2023-08-03T21:49:11.525Z,1.00
2023-08-03T21:51:38.049Z,1.10
2023-08-03T21:54:04.752Z,1.10
2023-08-03T21:56:31.300Z,0.88
2023-08-03T21:58:58.049Z,0.90
2023-08-03T22:01:24.822Z,0.95
2023-08-03T22:03:51.331Z,0.95
2023-08-03T22:06:19.325Z,1.00
2023-08-03T22:08:45.801Z,0.80
2023-08-03T22:11:16.930Z,1.20
2023-08-03T22:13:45.205Z,1.20
2023-08-03T22:16:12.393Z,0.90
2023-08-03T22:18:39.104Z,1.00
2023-08-03T22:21:10.419Z,1.25
2023-08-03T22:23:38.205Z,0.95
2023-08-03T22:26:05.436Z,1.45
2023-08-03T22:28:32.010Z,1.60
2023-08-03T22:30:58.536Z,1.60
2023-08-03T22:33:25.120Z,1.90
2023-08-03T22:35:51.844Z,1.92
2023-08-03T22:38:18.318Z,1.75
2023-08-03T22:40:44.786Z,1.60
2023-08-03T22:43:11.231Z,1.70
2023-08-03T22:45:41.568Z,1.70
2023-08-03T22:48:12.236Z,1.67
2023-08-03T22:50:40.280Z,1.88
2023-08-03T22:53:07.023Z,1.40
2023-08-03T22:55:33.491Z,1.58
2023-08-03T22:58:03.602Z,1.48
2023-08-03T23:00:30.696Z,1.50
2023-08-03T23:02:57.447Z,1.73
2023-08-03T23:05:25.137Z,1.20
2023-08-03T23:07:53.008Z,1.42
2023-08-03T23:10:19.548Z,1.70
2023-08-03T23:12:47.141Z,1.30
2023-08-03T23:15:13.872Z,1.50
2023-08-03T23:17:40.363Z,1.23
2023-08-03T23:20:07.861Z,1.05
2023-08-03T23:22:35.407Z,1.23
2023-08-03T23:25:04.856Z,1.10
2023-08-03T23:27:32.919Z,1.02
2023-08-03T23:29:59.428Z,1.25
2023-08-03T23:32:25.859Z,1.20
2023-08-03T23:34:54.125Z,1.00
2023-08-03T23:37:20.581Z,1.08
2023-08-03T23:39:48.365Z,1.10
2023-08-03T23:42:15.312Z,0.90
2023-08-03T23:44:41.764Z,0.88
2023-08-03T23:47:08.286Z,1.10
2023-08-03T23:49:35.172Z,0.98
2023-08-03T23:52:01.685Z,0.70
2023-08-03T23:54:31.280Z,0.90
2023-08-03T23:56:59.690Z,0.80
2023-08-03T23:59:26.238Z,0.80
